Terminal Aerodrome Forecast
Issued by NWS

Home | Current Version | Previous Version | Graphics & Text | Print | Product List | Glossary On
Versions: 1 2 3 4 5 6 7 8 9 10 11 12 13 14 15 16 17 18 19 20 21 22 23 24 25 26
669
FTUS43 KLOT 201722
TAFDPA
TAF
KDPA 201722Z 2018/2118 18011G17KT P6SM SCT250
     FM210100 18006KT P6SM BKN200
      TEMPO 2109/2113 4SM BR=

USA.gov is the U.S. government's official web portal to all federal, state and local government web resources and services.